Los Angeles Regional Airport Weather

KWHP 231550Z 00000KT 3SM HZ OVC010 17/14 A2988

KAPV 191256Z AUTO 05004KT 10SM FEW075 SCT090 BKN110 18/18 A2996 RMK AO2 SLP144 T01830178 $

KAVX 231751Z AUTO 12006KT 7SM OVC002 16/14 A2988 RMK AO2 SLP108 T01560144 10156 20122 51011

KBFL 231754Z 31012KT 10SM CLR 33/08 A2977 RMK AO2 SLP074 T03330078 10339 20244 51001

KBUR 231753Z 18007KT 5SM HZ OVC013 19/17 A2986 RMK AO2 SLP100 T01940167 10194 20167 52009

KCMA 231755Z 30008KT 250V320 9SM OVC013 22/16 A2985 RMK AO2 SLP115 T02170156 10217 20161 51007

KCNO 231753Z 30006KT 6SM HZ FEW020 24/16 A2986 RMK AO2 SLP107 T02440161 10244 20183 51006 $

KEMT 231645Z 20007KT 8SM OVC014 19/16 A2986

KFUL 231753Z VRB03KT 10SM OVC018 21/16 A2986 RMK AO2 SLP110 T02060156 10206 20178 51012

KHHR 231753Z 11005KT 10SM OVC018 19/15 A2987 RMK AO2 SLP113 60000 T01940150 10200 20167 51010

KL35 231755Z AUTO 26009KT 10SM CLR 25/M06 A3014 RMK AO2

KLAX 231753Z 16008KT 10SM OVC014 20/15 A2987 RMK AO2 SLP112 T02000150 10206 20172 51010 $

KLGB 231753Z 15007KT 10SM OVC013 19/16 A2987 RMK AO2 SLP115 T01940156 10194 20167 51012 $

KONT 231753Z VRB05KT 5SM HZ FEW130 BKN210 23/16 A2986 RMK AO2 SLP097 T02330161 10233 20172 51007

KOXR 231758Z 17007KT 9SM OVC010 17/16 A2986 RMK AO2 T01670156

KPMD 231753Z 27009KT 10SM CLR 34/M01 A2984 RMK AO2 SLP068 T03391011 10339 20178 58002

KPOC 231747Z 26006KT 6SM HZ CLR 21/16 A2989

KRAL 231753Z 33004KT 4SM HZ CLR 23/16 A2985 RMK AO2 SLP095 T02330161 10233 20167 51005

KSMO 231751Z 14003KT 10SM OVC009 19/15 A2987 RMK AO2 SLP113 T01890150 10189 20167 51010

KSNA 231753Z 18012KT 10SM OVC017 20/14 A2987 RMK AO2 SLP114 T02000144 10206 20178 51012

KTOA 231753Z 11009KT 10SM OVC013 19/15 A2897

KTRM 231752Z AUTO 17009KT 10SM CLR 34/19 A2972 RMK AO2 SLP066 T03440194 10344 20200 51008

KVNY 231751Z 15009KT 6SM HZ OVC014 20/16 A2986 RMK AO2 SLP105 T02000156 10206 20167 51010

KWJF 231756Z 20009KT 10SM CLR 34/01 A2982 RMK AO2 SLP070 T03390011 10344 20228 58003



How to read METARs